Wimauma, Florida
Current Conditions -  °F | °C
As of 1:58 AM on Sunday 23 Nov 2014 (Local Time) from KMCF Reporting Station
Clear Clear  
Wind Chill: 69°   Ceiling: Unl
Heat Index: 69°   Visibility: 10mi
Dew Point: 69°   Wind: 10mph
Humidity: 100%   Direction: 130°SE
Pressure: 30.03"   Gusts: NA
Location:  27.71°N, 82.3°W
Report Text: KMCF 230658Z AUTO 13009KT 10SM CLR 21/21 A3003 RMK AO2 RAB0605E0613DZB0557E0637 SLP172 P0001 T02070207
Loading
Personal Weather Stations






























Interactive Weather Map New forecast layout! Learn more

10-Day Weather Forecast

Advertisements
Track Severe Weather on mobile